sensor_id;sensor_type;location;lat;lon;timestamp;temperature;humidity
39503;DHT22;26970;49.900;10.774;2023-10-13T00:01:01;14.80;99.90
39503;DHT22;26970;49.900;10.774;2023-10-13T00:03:30;14.70;99.90
39503;DHT22;26970;49.900;10.774;2023-10-13T00:05:59;14.70;99.90
39503;DHT22;26970;49.900;10.774;2023-10-13T00:08:29;14.70;99.90
39503;DHT22;26970;49.900;10.774;2023-10-13T00:10:56;14.60;99.90
39503;DHT22;26970;49.900;10.774;2023-10-13T00:13:28;14.60;99.90
39503;DHT22;26970;49.900;10.774;2023-10-13T00:16:00;14.50;99.90
39503;DHT22;26970;49.900;10.774;2023-10-13T00:18:30;14.50;99.90
39503;DHT22;26970;49.900;10.774;2023-10-13T00:21:00;14.50;99.90
39503;DHT22;26970;49.900;10.774;2023-10-13T00:23:25;14.50;99.90
39503;DHT22;26970;49.900;10.774;2023-10-13T00:25:54;14.50;99.90
39503;DHT22;26970;49.900;10.774;2023-10-13T00:28:26;14.50;99.90
39503;DHT22;26970;49.900;10.774;2023-10-13T00:30:53;14.50;99.90
39503;DHT22;26970;49.900;10.774;2023-10-13T00:33:25;14.50;99.90
39503;DHT22;26970;49.900;10.774;2023-10-13T00:35:51;14.50;99.90
39503;DHT22;26970;49.900;10.774;2023-10-13T00:38:22;14.50;99.90
39503;DHT22;26970;49.900;10.774;2023-10-13T00:40:48;14.50;99.90
39503;DHT22;26970;49.900;10.774;2023-10-13T00:43:21;14.50;99.90
39503;DHT22;26970;49.900;10.774;2023-10-13T00:45:57;14.50;99.90
39503;DHT22;26970;49.900;10.774;2023-10-13T00:48:37;14.50;99.90
39503;DHT22;26970;49.900;10.774;2023-10-13T00:51:17;14.50;99.90
39503;DHT22;26970;49.900;10.774;2023-10-13T00:54:00;14.50;99.90
39503;DHT22;26970;49.900;10.774;2023-10-13T00:56:28;14.50;99.90
39503;DHT22;26970;49.900;10.774;2023-10-13T00:58:55;14.50;99.90
39503;DHT22;26970;49.900;10.774;2023-10-13T01:01:23;14.50;99.90
39503;DHT22;26970;49.900;10.774;2023-10-13T01:03:55;14.50;99.90
39503;DHT22;26970;49.900;10.774;2023-10-13T01:06:22;14.50;99.90
39503;DHT22;26970;49.900;10.774;2023-10-13T01:09:02;14.50;99.90
39503;DHT22;26970;49.900;10.774;2023-10-13T01:11:50;14.50;99.90
39503;DHT22;26970;49.900;10.774;2023-10-13T01:14:21;14.50;99.90
39503;DHT22;26970;49.900;10.774;2023-10-13T01:16:48;14.60;99.90
39503;DHT22;26970;49.900;10.774;2023-10-13T01:19:17;14.60;99.90
39503;DHT22;26970;49.900;10.774;2023-10-13T01:21:45;14.60;99.90
39503;DHT22;26970;49.900;10.774;2023-10-13T01:24:13;14.60;99.90
39503;DHT22;26970;49.900;10.774;2023-10-13T01:26:38;14.60;99.90
39503;DHT22;26970;49.900;10.774;2023-10-13T01:29:06;14.60;99.90
39503;DHT22;26970;49.900;10.774;2023-10-13T01:31:41;14.50;99.90
39503;DHT22;26970;49.900;10.774;2023-10-13T01:34:18;14.50;99.90
39503;DHT22;26970;49.900;10.774;2023-10-13T01:36:51;14.50;99.90
39503;DHT22;26970;49.900;10.774;2023-10-13T01:39:17;14.50;99.90
39503;DHT22;26970;49.900;10.774;2023-10-13T01:41:44;14.50;99.90
39503;DHT22;26970;49.900;10.774;2023-10-13T01:44:09;14.40;99.90
39503;DHT22;26970;49.900;10.774;2023-10-13T01:46:40;14.40;99.90
39503;DHT22;26970;49.900;10.774;2023-10-13T01:49:08;14.40;99.90
39503;DHT22;26970;49.900;10.774;2023-10-13T01:51:34;14.40;99.90
39503;DHT22;26970;49.900;10.774;2023-10-13T01:53:59;14.40;99.90
39503;DHT22;26970;49.900;10.774;2023-10-13T01:56:29;14.40;99.90
39503;DHT22;26970;49.900;10.774;2023-10-13T01:58:56;14.30;99.90
39503;DHT22;26970;49.900;10.774;2023-10-13T02:01:22;14.30;99.90
39503;DHT22;26970;49.900;10.774;2023-10-13T02:03:55;14.30;99.90
39503;DHT22;26970;49.900;10.774;2023-10-13T02:06:35;14.20;99.90
39503;DHT22;26970;49.900;10.774;2023-10-13T02:09:04;14.20;99.90
39503;DHT22;26970;49.900;10.774;2023-10-13T02:11:42;14.20;99.90
39503;DHT22;26970;49.900;10.774;2023-10-13T02:14:11;14.20;99.90
39503;DHT22;26970;49.900;10.774;2023-10-13T02:16:40;14.30;99.90
39503;DHT22;26970;49.900;10.774;2023-10-13T02:19:05;14.30;99.90
39503;DHT22;26970;49.900;10.774;2023-10-13T02:21:35;14.30;99.90
39503;DHT22;26970;49.900;10.774;2023-10-13T02:24:09;14.40;99.90
39503;DHT22;26970;49.900;10.774;2023-10-13T02:26:44;14.30;99.90
39503;DHT22;26970;49.900;10.774;2023-10-13T02:29:10;14.30;99.90
39503;DHT22;26970;49.900;10.774;2023-10-13T02:31:42;14.40;99.90
39503;DHT22;26970;49.900;10.774;2023-10-13T02:34:08;14.40;99.90
39503;DHT22;26970;49.900;10.774;2023-10-13T02:36:38;14.40;99.90
39503;DHT22;26970;49.900;10.774;2023-10-13T02:39:12;14.40;99.90
39503;DHT22;26970;49.900;10.774;2023-10-13T02:41:39;14.30;99.90
39503;DHT22;26970;49.900;10.774;2023-10-13T02:44:07;14.30;99.90
39503;DHT22;26970;49.900;10.774;2023-10-13T02:46:34;14.30;99.90
39503;DHT22;26970;49.900;10.774;2023-10-13T02:49:05;14.20;99.90
39503;DHT22;26970;49.900;10.774;2023-10-13T02:51:40;14.20;99.90
39503;DHT22;26970;49.900;10.774;2023-10-13T02:54:08;14.30;99.90
39503;DHT22;26970;49.900;10.774;2023-10-13T02:56:46;14.30;99.90
39503;DHT22;26970;49.900;10.774;2023-10-13T02:59:25;14.30;99.90
39503;DHT22;26970;49.900;10.774;2023-10-13T03:02:03;14.30;99.90
39503;DHT22;26970;49.900;10.774;2023-10-13T03:04:50;14.30;99.90
39503;DHT22;26970;49.900;10.774;2023-10-13T03:07:16;14.40;99.90
39503;DHT22;26970;49.900;10.774;2023-10-13T03:09:48;14.40;99.90
39503;DHT22;26970;49.900;10.774;2023-10-13T03:12:18;14.50;99.90
39503;DHT22;26970;49.900;10.774;2023-10-13T03:14:44;14.50;99.90
39503;DHT22;26970;49.900;10.774;2023-10-13T03:17:22;14.50;99.90
39503;DHT22;26970;49.900;10.774;2023-10-13T03:19:59;14.50;99.90
39503;DHT22;26970;49.900;10.774;2023-10-13T03:22:25;14.60;99.90
39503;DHT22;26970;49.900;10.774;2023-10-13T03:25:00;14.50;99.90
39503;DHT22;26970;49.900;10.774;2023-10-13T03:27:34;14.60;99.90
39503;DHT22;26970;49.900;10.774;2023-10-13T03:30:26;14.60;99.90
39503;DHT22;26970;49.900;10.774;2023-10-13T03:33:05;14.70;99.90
39503;DHT22;26970;49.900;10.774;2023-10-13T03:35:51;14.50;99.90
39503;DHT22;26970;49.900;10.774;2023-10-13T03:38:20;14.50;99.90
39503;DHT22;26970;49.900;10.774;2023-10-13T03:40:51;14.60;99.90
39503;DHT22;26970;49.900;10.774;2023-10-13T03:43:35;14.60;99.90
39503;DHT22;26970;49.900;10.774;2023-10-13T03:46:17;14.60;99.90
39503;DHT22;26970;49.900;10.774;2023-10-13T03:48:47;14.70;99.90
39503;DHT22;26970;49.900;10.774;2023-10-13T03:51:20;14.70;99.90
39503;DHT22;26970;49.900;10.774;2023-10-13T03:53:46;14.60;99.90
39503;DHT22;26970;49.900;10.774;2023-10-13T03:56:21;14.60;99.90
39503;DHT22;26970;49.900;10.774;2023-10-13T03:59:05;14.60;99.90
39503;DHT22;26970;49.900;10.774;2023-10-13T04:01:36;14.40;99.90
39503;DHT22;26970;49.900;10.774;2023-10-13T04:04:17;14.50;99.90
39503;DHT22;26970;49.900;10.774;2023-10-13T04:07:01;14.50;99.90
39503;DHT22;26970;49.900;10.774;2023-10-13T04:09:36;14.60;99.90
39503;DHT22;26970;49.900;10.774;2023-10-13T04:12:04;14.50;99.90
39503;DHT22;26970;49.900;10.774;2023-10-13T04:14:35;14.50;99.90
39503;DHT22;26970;49.900;10.774;2023-10-13T04:17:20;14.50;99.90
39503;DHT22;26970;49.900;10.774;2023-10-13T04:19:51;14.50;99.90
39503;DHT22;26970;49.900;10.774;2023-10-13T04:22:40;14.40;99.90
39503;DHT22;26970;49.900;10.774;2023-10-13T04:25:22;14.40;99.90
39503;DHT22;26970;49.900;10.774;2023-10-13T04:28:08;14.40;99.90
39503;DHT22;26970;49.900;10.774;2023-10-13T04:30:46;14.30;99.90
39503;DHT22;26970;49.900;10.774;2023-10-13T04:33:25;14.40;99.90
39503;DHT22;26970;49.900;10.774;2023-10-13T04:36:02;14.40;99.90
39503;DHT22;26970;49.900;10.774;2023-10-13T04:38:45;14.40;99.90
39503;DHT22;26970;49.900;10.774;2023-10-13T04:41:39;14.40;99.90
39503;DHT22;26970;49.900;10.774;2023-10-13T04:44:14;14.40;99.90
39503;DHT22;26970;49.900;10.774;2023-10-13T04:46:56;14.30;99.90
39503;DHT22;26970;49.900;10.774;2023-10-13T04:49:25;14.30;99.90
39503;DHT22;26970;49.900;10.774;2023-10-13T04:52:02;14.30;99.90
39503;DHT22;26970;49.900;10.774;2023-10-13T04:54:38;14.30;99.90
39503;DHT22;26970;49.900;10.774;2023-10-13T04:57:13;14.30;99.90
39503;DHT22;26970;49.900;10.774;2023-10-13T05:00:00;14.30;99.90
39503;DHT22;26970;49.900;10.774;2023-10-13T05:02:35;14.30;99.90
39503;DHT22;26970;49.900;10.774;2023-10-13T05:07:51;14.30;99.90
39503;DHT22;26970;49.900;10.774;2023-10-13T05:10:36;14.20;99.90
39503;DHT22;26970;49.900;10.774;2023-10-13T05:13:21;14.20;99.90
39503;DHT22;26970;49.900;10.774;2023-10-13T05:16:05;14.10;99.90
39503;DHT22;26970;49.900;10.774;2023-10-13T05:18:49;14.10;99.90
39503;DHT22;26970;49.900;10.774;2023-10-13T05:21:33;14.10;99.90
39503;DHT22;26970;49.900;10.774;2023-10-13T05:24:17;14.10;99.90
39503;DHT22;26970;49.900;10.774;2023-10-13T05:27:01;14.10;99.90
39503;DHT22;26970;49.900;10.774;2023-10-13T05:29:46;14.10;99.90
39503;DHT22;26970;49.900;10.774;2023-10-13T05:32:31;14.10;99.90
39503;DHT22;26970;49.900;10.774;2023-10-13T05:35:16;14.10;99.90
39503;DHT22;26970;49.900;10.774;2023-10-13T05:38:01;14.00;99.90
39503;DHT22;26970;49.900;10.774;2023-10-13T05:41:04;14.00;99.90
39503;DHT22;26970;49.900;10.774;2023-10-13T05:43:48;14.00;99.90
39503;DHT22;26970;49.900;10.774;2023-10-13T05:46:32;13.90;99.90
39503;DHT22;26970;49.900;10.774;2023-10-13T05:49:05;14.00;99.90
39503;DHT22;26970;49.900;10.774;2023-10-13T05:51:32;14.10;99.90
39503;DHT22;26970;49.900;10.774;2023-10-13T05:54:03;13.90;99.90
39503;DHT22;26970;49.900;10.774;2023-10-13T05:56:41;14.00;99.90
39503;DHT22;26970;49.900;10.774;2023-10-13T05:59:26;14.00;99.90
39503;DHT22;26970;49.900;10.774;2023-10-13T06:02:10;14.00;99.90
39503;DHT22;26970;49.900;10.774;2023-10-13T06:04:55;14.00;99.90
39503;DHT22;26970;49.900;10.774;2023-10-13T06:07:39;14.00;99.90
39503;DHT22;26970;49.900;10.774;2023-10-13T06:10:23;13.90;99.90
39503;DHT22;26970;49.900;10.774;2023-10-13T06:13:12;13.90;99.90
39503;DHT22;26970;49.900;10.774;2023-10-13T06:15:56;13.90;99.90
39503;DHT22;26970;49.900;10.774;2023-10-13T06:18:40;13.90;99.90
39503;DHT22;26970;49.900;10.774;2023-10-13T06:21:24;13.90;99.90
39503;DHT22;26970;49.900;10.774;2023-10-13T06:24:08;14.00;99.90
39503;DHT22;26970;49.900;10.774;2023-10-13T06:26:52;14.00;99.90
39503;DHT22;26970;49.900;10.774;2023-10-13T06:29:36;14.00;99.90
39503;DHT22;26970;49.900;10.774;2023-10-13T06:32:02;14.10;99.90
39503;DHT22;26970;49.900;10.774;2023-10-13T06:34:36;14.10;99.90
39503;DHT22;26970;49.900;10.774;2023-10-13T06:37:14;14.20;99.90
39503;DHT22;26970;49.900;10.774;2023-10-13T06:40:10;14.30;99.90
39503;DHT22;26970;49.900;10.774;2023-10-13T06:42:54;14.40;99.90
39503;DHT22;26970;49.900;10.774;2023-10-13T06:45:43;14.50;99.90
39503;DHT22;26970;49.900;10.774;2023-10-13T06:48:09;14.60;99.90
39503;DHT22;26970;49.900;10.774;2023-10-13T06:50:39;14.70;99.90
39503;DHT22;26970;49.900;10.774;2023-10-13T06:53:07;14.80;99.90
39503;DHT22;26970;49.900;10.774;2023-10-13T06:55:36;14.80;99.90
39503;DHT22;26970;49.900;10.774;2023-10-13T06:58:07;14.90;99.90
39503;DHT22;26970;49.900;10.774;2023-10-13T07:00:39;14.90;99.90
39503;DHT22;26970;49.900;10.774;2023-10-13T07:03:06;15.10;99.90
39503;DHT22;26970;49.900;10.774;2023-10-13T07:05:36;15.20;99.90
39503;DHT22;26970;49.900;10.774;2023-10-13T07:08:04;15.30;99.90
39503;DHT22;26970;49.900;10.774;2023-10-13T07:10:30;15.60;99.90
39503;DHT22;26970;49.900;10.774;2023-10-13T07:12:58;15.60;99.90
39503;DHT22;26970;49.900;10.774;2023-10-13T07:15:26;15.60;99.90
39503;DHT22;26970;49.900;10.774;2023-10-13T07:17:54;15.50;99.90
39503;DHT22;26970;49.900;10.774;2023-10-13T07:20:24;15.60;99.90
39503;DHT22;26970;49.900;10.774;2023-10-13T07:22:59;15.60;99.90
39503;DHT22;26970;49.900;10.774;2023-10-13T07:25:32;15.50;99.90
39503;DHT22;26970;49.900;10.774;2023-10-13T07:28:02;15.50;99.90
39503;DHT22;26970;49.900;10.774;2023-10-13T07:30:34;15.50;99.90
39503;DHT22;26970;49.900;10.774;2023-10-13T07:33:34;15.50;99.90
39503;DHT22;26970;49.900;10.774;2023-10-13T07:38:26;15.90;99.90
39503;DHT22;26970;49.900;10.774;2023-10-13T07:40:56;16.00;99.90
39503;DHT22;26970;49.900;10.774;2023-10-13T07:43:32;16.00;99.90
39503;DHT22;26970;49.900;10.774;2023-10-13T07:45:58;16.00;99.90
39503;DHT22;26970;49.900;10.774;2023-10-13T07:48:25;15.90;99.90
39503;DHT22;26970;49.900;10.774;2023-10-13T07:51:02;16.10;99.90
39503;DHT22;26970;49.900;10.774;2023-10-13T07:53:32;16.10;99.90
39503;DHT22;26970;49.900;10.774;2023-10-13T07:56:04;16.20;99.90
39503;DHT22;26970;49.900;10.774;2023-10-13T07:58:35;16.20;99.90
39503;DHT22;26970;49.900;10.774;2023-10-13T08:01:13;16.10;99.90
39503;DHT22;26970;49.900;10.774;2023-10-13T08:03:42;16.10;99.90
39503;DHT22;26970;49.900;10.774;2023-10-13T08:06:13;16.00;99.90
39503;DHT22;26970;49.900;10.774;2023-10-13T08:08:39;16.00;99.90
39503;DHT22;26970;49.900;10.774;2023-10-13T08:11:10;16.00;99.90
39503;DHT22;26970;49.900;10.774;2023-10-13T08:13:59;16.00;99.90
39503;DHT22;26970;49.900;10.774;2023-10-13T08:16:29;16.10;99.90
39503;DHT22;26970;49.900;10.774;2023-10-13T08:19:32;16.40;99.90
39503;DHT22;26970;49.900;10.774;2023-10-13T08:22:11;16.40;99.90
39503;DHT22;26970;49.900;10.774;2023-10-13T08:24:43;16.50;99.90
39503;DHT22;26970;49.900;10.774;2023-10-13T08:27:09;16.60;99.90
39503;DHT22;26970;49.900;10.774;2023-10-13T08:29:44;16.80;99.90
39503;DHT22;26970;49.900;10.774;2023-10-13T08:32:18;16.90;99.90
39503;DHT22;26970;49.900;10.774;2023-10-13T08:34:57;17.10;99.90
39503;DHT22;26970;49.900;10.774;2023-10-13T08:37:24;17.30;99.90
39503;DHT22;26970;49.900;10.774;2023-10-13T08:39:51;17.50;99.90
39503;DHT22;26970;49.900;10.774;2023-10-13T08:42:37;17.80;99.90
39503;DHT22;26970;49.900;10.774;2023-10-13T08:45:12;17.90;99.90
39503;DHT22;26970;49.900;10.774;2023-10-13T08:47:58;17.90;99.90
39503;DHT22;26970;49.900;10.774;2023-10-13T08:50:37;18.10;99.90
39503;DHT22;26970;49.900;10.774;2023-10-13T08:56:04;18.20;99.90
39503;DHT22;26970;49.900;10.774;2023-10-13T08:58:37;18.40;99.90
39503;DHT22;26970;49.900;10.774;2023-10-13T09:01:36;18.50;99.90
39503;DHT22;26970;49.900;10.774;2023-10-13T09:04:18;18.40;99.90
39503;DHT22;26970;49.900;10.774;2023-10-13T09:06:45;18.60;99.90
39503;DHT22;26970;49.900;10.774;2023-10-13T09:09:30;18.80;99.90
39503;DHT22;26970;49.900;10.774;2023-10-13T09:12:29;18.90;99.90
39503;DHT22;26970;49.900;10.774;2023-10-13T09:15:05;19.10;99.90
39503;DHT22;26970;49.900;10.774;2023-10-13T09:17:43;19.30;99.90
39503;DHT22;26970;49.900;10.774;2023-10-13T09:20:39;19.40;99.90
39503;DHT22;26970;49.900;10.774;2023-10-13T09:23:12;19.10;99.90
39503;DHT22;26970;49.900;10.774;2023-10-13T09:25:45;19.10;99.90
39503;DHT22;26970;49.900;10.774;2023-10-13T09:28:24;19.40;99.90
39503;DHT22;26970;49.900;10.774;2023-10-13T09:30:54;19.30;99.90
39503;DHT22;26970;49.900;10.774;2023-10-13T09:33:27;19.30;99.90
39503;DHT22;26970;49.900;10.774;2023-10-13T09:36:05;19.40;99.90
39503;DHT22;26970;49.900;10.774;2023-10-13T09:38:38;19.40;99.90
39503;DHT22;26970;49.900;10.774;2023-10-13T09:41:12;19.60;99.90
39503;DHT22;26970;49.900;10.774;2023-10-13T09:43:45;19.90;99.90
39503;DHT22;26970;49.900;10.774;2023-10-13T09:46:15;20.00;99.90
39503;DHT22;26970;49.900;10.774;2023-10-13T09:48:47;20.00;99.90
39503;DHT22;26970;49.900;10.774;2023-10-13T09:51:16;19.90;99.90
39503;DHT22;26970;49.900;10.774;2023-10-13T09:53:51;20.00;99.90
39503;DHT22;26970;49.900;10.774;2023-10-13T09:56:25;19.90;99.90
39503;DHT22;26970;49.900;10.774;2023-10-13T09:59:03;20.00;99.90
39503;DHT22;26970;49.900;10.774;2023-10-13T10:01:41;20.10;99.90
39503;DHT22;26970;49.900;10.774;2023-10-13T10:04:17;20.30;99.90
39503;DHT22;26970;49.900;10.774;2023-10-13T10:06:57;20.40;99.90
39503;DHT22;26970;49.900;10.774;2023-10-13T10:09:32;20.40;99.90
39503;DHT22;26970;49.900;10.774;2023-10-13T10:12:27;20.50;99.90
39503;DHT22;26970;49.900;10.774;2023-10-13T10:15:34;20.70;99.90
39503;DHT22;26970;49.900;10.774;2023-10-13T10:18:04;20.80;99.90
39503;DHT22;26970;49.900;10.774;2023-10-13T10:20:39;21.00;99.90
39503;DHT22;26970;49.900;10.774;2023-10-13T10:23:10;21.10;99.90
39503;DHT22;26970;49.900;10.774;2023-10-13T10:25:58;21.30;99.90
39503;DHT22;26970;49.900;10.774;2023-10-13T10:28:38;21.60;99.90
39503;DHT22;26970;49.900;10.774;2023-10-13T10:31:33;21.50;99.90
39503;DHT22;26970;49.900;10.774;2023-10-13T10:34:17;21.60;99.90
39503;DHT22;26970;49.900;10.774;2023-10-13T10:37:04;21.80;99.90
39503;DHT22;26970;49.900;10.774;2023-10-13T10:43:14;21.80;99.90
39503;DHT22;26970;49.900;10.774;2023-10-13T10:45:47;21.80;99.90
39503;DHT22;26970;49.900;10.774;2023-10-13T10:48:16;21.80;99.90
39503;DHT22;26970;49.900;10.774;2023-10-13T10:50:55;21.80;99.90
39503;DHT22;26970;49.900;10.774;2023-10-13T10:53:28;21.80;99.90
39503;DHT22;26970;49.900;10.774;2023-10-13T10:56:06;22.00;99.90
39503;DHT22;26970;49.900;10.774;2023-10-13T10:58:47;22.20;99.90
39503;DHT22;26970;49.900;10.774;2023-10-13T11:01:23;22.20;99.90
39503;DHT22;26970;49.900;10.774;2023-10-13T11:04:03;22.20;99.90
39503;DHT22;26970;49.900;10.774;2023-10-13T11:06:54;22.40;99.90
39503;DHT22;26970;49.900;10.774;2023-10-13T11:09:29;22.50;99.90
39503;DHT22;26970;49.900;10.774;2023-10-13T11:12:12;22.70;99.90
39503;DHT22;26970;49.900;10.774;2023-10-13T11:14:45;22.80;99.90
39503;DHT22;26970;49.900;10.774;2023-10-13T11:17:23;22.90;99.90
39503;DHT22;26970;49.900;10.774;2023-10-13T11:20:08;23.00;99.90
39503;DHT22;26970;49.900;10.774;2023-10-13T11:22:41;23.00;99.90
39503;DHT22;26970;49.900;10.774;2023-10-13T11:25:23;22.90;99.90
39503;DHT22;26970;49.900;10.774;2023-10-13T11:27:56;22.90;99.90
39503;DHT22;26970;49.900;10.774;2023-10-13T11:30:25;22.70;99.90
39503;DHT22;26970;49.900;10.774;2023-10-13T11:33:42;22.60;99.90
39503;DHT22;26970;49.900;10.774;2023-10-13T11:36:11;22.60;99.90
39503;DHT22;26970;49.900;10.774;2023-10-13T11:38:48;22.60;99.90
39503;DHT22;26970;49.900;10.774;2023-10-13T11:41:14;22.60;99.90
39503;DHT22;26970;49.900;10.774;2023-10-13T11:47:07;22.60;99.90
39503;DHT22;26970;49.900;10.774;2023-10-13T11:49:53;22.90;99.90
39503;DHT22;26970;49.900;10.774;2023-10-13T11:52:42;23.10;99.90
39503;DHT22;26970;49.900;10.774;2023-10-13T11:55:10;23.20;99.90
39503;DHT22;26970;49.900;10.774;2023-10-13T11:57:48;23.40;99.90
39503;DHT22;26970;49.900;10.774;2023-10-13T12:00:24;23.50;99.90
39503;DHT22;26970;49.900;10.774;2023-10-13T12:03:12;23.60;99.90
39503;DHT22;26970;49.900;10.774;2023-10-13T12:06:01;23.50;99.90
39503;DHT22;26970;49.900;10.774;2023-10-13T12:08:58;23.40;99.90
39503;DHT22;26970;49.900;10.774;2023-10-13T12:11:40;23.20;99.90
39503;DHT22;26970;49.900;10.774;2023-10-13T12:14:17;23.20;99.90
39503;DHT22;26970;49.900;10.774;2023-10-13T12:17:16;23.30;99.90
39503;DHT22;26970;49.900;10.774;2023-10-13T12:20:22;23.60;99.90
39503;DHT22;26970;49.900;10.774;2023-10-13T12:23:37;23.60;99.90
39503;DHT22;26970;49.900;10.774;2023-10-13T12:26:05;23.50;99.90
39503;DHT22;26970;49.900;10.774;2023-10-13T12:28:54;23.40;99.90
39503;DHT22;26970;49.900;10.774;2023-10-13T12:31:45;23.50;99.90
39503;DHT22;26970;49.900;10.774;2023-10-13T12:34:23;23.50;99.90
39503;DHT22;26970;49.900;10.774;2023-10-13T12:37:08;23.50;99.90
39503;DHT22;26970;49.900;10.774;2023-10-13T12:39:56;23.50;99.90
39503;DHT22;26970;49.900;10.774;2023-10-13T12:42:41;23.50;99.90
39503;DHT22;26970;49.900;10.774;2023-10-13T12:45:25;23.50;99.90
39503;DHT22;26970;49.900;10.774;2023-10-13T12:48:09;23.50;99.90
39503;DHT22;26970;49.900;10.774;2023-10-13T12:54:08;23.60;99.90
39503;DHT22;26970;49.900;10.774;2023-10-13T12:56:42;23.40;99.90
39503;DHT22;26970;49.900;10.774;2023-10-13T12:59:09;23.40;99.90
39503;DHT22;26970;49.900;10.774;2023-10-13T13:01:39;23.30;99.90
39503;DHT22;26970;49.900;10.774;2023-10-13T13:04:10;23.30;99.90
39503;DHT22;26970;49.900;10.774;2023-10-13T13:06:51;23.20;99.90
39503;DHT22;26970;49.900;10.774;2023-10-13T13:09:21;23.20;99.90
39503;DHT22;26970;49.900;10.774;2023-10-13T13:11:53;23.20;99.90
39503;DHT22;26970;49.900;10.774;2023-10-13T13:14:25;23.20;99.90
39503;DHT22;26970;49.900;10.774;2023-10-13T13:17:09;23.10;99.90
39503;DHT22;26970;49.900;10.774;2023-10-13T13:19:37;23.20;99.90
39503;DHT22;26970;49.900;10.774;2023-10-13T13:22:06;23.30;99.90
39503;DHT22;26970;49.900;10.774;2023-10-13T13:24:44;23.30;99.90
39503;DHT22;26970;49.900;10.774;2023-10-13T13:27:14;23.40;99.90
39503;DHT22;26970;49.900;10.774;2023-10-13T13:29:46;23.50;99.90
39503;DHT22;26970;49.900;10.774;2023-10-13T13:32:21;23.50;99.90
39503;DHT22;26970;49.900;10.774;2023-10-13T13:35:08;23.70;99.90
39503;DHT22;26970;49.900;10.774;2023-10-13T13:37:39;23.60;99.90
39503;DHT22;26970;49.900;10.774;2023-10-13T13:40:13;23.60;99.90
39503;DHT22;26970;49.900;10.774;2023-10-13T13:42:46;23.60;99.90
39503;DHT22;26970;49.900;10.774;2023-10-13T13:45:41;23.60;99.90
39503;DHT22;26970;49.900;10.774;2023-10-13T13:48:21;23.50;99.90
39503;DHT22;26970;49.900;10.774;2023-10-13T13:50:56;23.40;99.90
39503;DHT22;26970;49.900;10.774;2023-10-13T13:53:57;23.40;99.90
39503;DHT22;26970;49.900;10.774;2023-10-13T13:56:36;23.30;99.90
39503;DHT22;26970;49.900;10.774;2023-10-13T13:59:25;23.30;99.90
39503;DHT22;26970;49.900;10.774;2023-10-13T14:01:56;23.40;99.90
39503;DHT22;26970;49.900;10.774;2023-10-13T14:07:23;23.60;99.90
39503;DHT22;26970;49.900;10.774;2023-10-13T14:09:58;23.60;99.90
39503;DHT22;26970;49.900;10.774;2023-10-13T14:12:32;23.70;99.90
39503;DHT22;26970;49.900;10.774;2023-10-13T14:15:28;23.80;99.90
39503;DHT22;26970;49.900;10.774;2023-10-13T14:18:30;24.00;99.90
39503;DHT22;26970;49.900;10.774;2023-10-13T14:21:07;23.90;99.90
39503;DHT22;26970;49.900;10.774;2023-10-13T14:24:11;24.10;99.90
39503;DHT22;26970;49.900;10.774;2023-10-13T14:26:49;24.20;99.90
39503;DHT22;26970;49.900;10.774;2023-10-13T14:29:17;24.10;99.90
39503;DHT22;26970;49.900;10.774;2023-10-13T14:32:09;24.10;99.90
39503;DHT22;26970;49.900;10.774;2023-10-13T14:34:47;23.80;99.90
39503;DHT22;26970;49.900;10.774;2023-10-13T14:37:40;23.70;99.90
39503;DHT22;26970;49.900;10.774;2023-10-13T14:40:20;23.50;99.90
39503;DHT22;26970;49.900;10.774;2023-10-13T14:43:03;23.40;99.90
39503;DHT22;26970;49.900;10.774;2023-10-13T14:45:35;23.40;99.90
39503;DHT22;26970;49.900;10.774;2023-10-13T14:48:10;23.30;99.90
39503;DHT22;26970;49.900;10.774;2023-10-13T14:50:53;23.20;99.90
39503;DHT22;26970;49.900;10.774;2023-10-13T14:53:51;23.20;99.90
39503;DHT22;26970;49.900;10.774;2023-10-13T14:56:28;23.20;99.90
39503;DHT22;26970;49.900;10.774;2023-10-13T14:59:12;23.20;99.90
39503;DHT22;26970;49.900;10.774;2023-10-13T15:02:14;23.20;99.90
39503;DHT22;26970;49.900;10.774;2023-10-13T15:04:58;23.20;99.90
39503;DHT22;26970;49.900;10.774;2023-10-13T15:07:46;23.10;99.90
39503;DHT22;26970;49.900;10.774;2023-10-13T15:10:21;23.10;99.90
39503;DHT22;26970;49.900;10.774;2023-10-13T15:13:19;23.10;99.90
39503;DHT22;26970;49.900;10.774;2023-10-13T15:15:56;23.00;99.90
39503;DHT22;26970;49.900;10.774;2023-10-13T15:19:11;23.00;99.90
39503;DHT22;26970;49.900;10.774;2023-10-13T15:21:37;23.00;99.90
39503;DHT22;26970;49.900;10.774;2023-10-13T15:24:37;22.90;99.90
39503;DHT22;26970;49.900;10.774;2023-10-13T15:27:44;22.90;99.90
39503;DHT22;26970;49.900;10.774;2023-10-13T15:30:25;22.80;99.90
39503;DHT22;26970;49.900;10.774;2023-10-13T15:33:17;22.80;99.90
39503;DHT22;26970;49.900;10.774;2023-10-13T15:35:50;22.70;99.90
39503;DHT22;26970;49.900;10.774;2023-10-13T15:38:23;22.70;99.90
39503;DHT22;26970;49.900;10.774;2023-10-13T15:40:59;22.60;99.90
39503;DHT22;26970;49.900;10.774;2023-10-13T15:44:00;22.60;99.90
39503;DHT22;26970;49.900;10.774;2023-10-13T15:46:39;22.60;99.90
39503;DHT22;26970;49.900;10.774;2023-10-13T15:49:14;22.60;99.90
39503;DHT22;26970;49.900;10.774;2023-10-13T15:51:49;22.60;99.90
39503;DHT22;26970;49.900;10.774;2023-10-13T15:54:38;22.60;99.90
39503;DHT22;26970;49.900;10.774;2023-10-13T15:57:35;22.60;99.90
39503;DHT22;26970;49.900;10.774;2023-10-13T16:00:22;22.50;99.90
39503;DHT22;26970;49.900;10.774;2023-10-13T16:06:24;22.30;99.90
39503;DHT22;26970;49.900;10.774;2023-10-13T16:09:26;22.30;99.90
39503;DHT22;26970;49.900;10.774;2023-10-13T16:12:13;22.10;99.90
39503;DHT22;26970;49.900;10.774;2023-10-13T16:18:22;21.80;99.90
39503;DHT22;26970;49.900;10.774;2023-10-13T16:21:03;21.70;99.90
39503;DHT22;26970;49.900;10.774;2023-10-13T16:24:11;21.40;99.90
39503;DHT22;26970;49.900;10.774;2023-10-13T16:27:00;21.40;99.90
39503;DHT22;26970;49.900;10.774;2023-10-13T16:29:34;21.20;99.90
39503;DHT22;26970;49.900;10.774;2023-10-13T16:32:05;21.20;99.90
39503;DHT22;26970;49.900;10.774;2023-10-13T16:34:59;21.20;99.90
39503;DHT22;26970;49.900;10.774;2023-10-13T16:37:25;21.20;99.90
39503;DHT22;26970;49.900;10.774;2023-10-13T16:39:56;21.10;99.90
39503;DHT22;26970;49.900;10.774;2023-10-13T16:42:38;21.00;99.90
39503;DHT22;26970;49.900;10.774;2023-10-13T16:45:34;21.00;99.90
39503;DHT22;26970;49.900;10.774;2023-10-13T16:48:11;21.00;99.90